PWSweather.com
Personal Weather Stations
Station Observations
KUCEROV1
Npr Větrníky, VyskovCZ 68201

Npr VětrníkyVyskovCZ 68201

Lat: 49.219314, Lon: 17.009937

Elevation: 1001

Station Type: WH2080

Latest ConditionsUpdated 5:00:00 AM GMT+01:01 Wednesday, Aug 21, 2019
Currently Today's Max Today's Min Today's Average
Temperature 64.2°F17.9°C 70.7°F21.5°C 64.2°F17.9°C 67.6°F19.8°C
Dew Point 61.3°F16.3°C 68.6°F20.3°C 61.3°F16.3°C 65.6°F18.7°C
Winds 4.1 mph NW6.6 kmh NW 7.1 mph -11.4 kmh - - 4.0 mph 6.4 kmh
Wind Gusts 11.4 mph18.3 kmh 13.6 mph21.9 kmh - -
Humidity 90% 96% 90% 93%
Pressure 30.22 in1023.4 mb 30.22 in1023.4 mb 30.05 in1017.6 mb -
Precipitation - 0.06 in1.5 mm - -
Hour Temp Dew Point Humidity Winds Wind Gusts Pressure Precip Precip Rate Daily Precip Total
05:00 AM 64.2°F17.9°C 61.3°F16.3°C 90% 4.1 mph NW6.6 kmh NW 11.4 mph18.3 kmh 30.22 in1023.4 mb 0.00 in0.0 mm 0.00 in0.0 mm 0.06 in1.5 mm
04:55 AM 64.2°F17.9°C 61.4°F16.3°C 91% 3.9 mph W6.3 kmh W 7.6 mph12.2 kmh 30.22 in1023.4 mb 0.00 in0.0 mm 0.00 in0.0 mm 0.06 in1.5 mm
04:50 AM 64.2°F17.9°C 61.5°F16.4°C 91% 5.2 mph WNW8.4 kmh WNW 10.7 mph17.2 kmh 30.22 in1023.4 mb 0.00 in0.0 mm 0.00 in0.0 mm 0.06 in1.5 mm
04:45 AM 64.4°F18.0°C 61.7°F16.5°C 91% 6.9 mph NW11.1 kmh NW 12.1 mph19.5 kmh 30.21 in1023.0 mb 0.00 in0.0 mm 0.00 in0.0 mm 0.06 in1.5 mm
04:40 AM 64.5°F18.1°C 62.0°F16.7°C 92% 5.2 mph WNW8.4 kmh WNW 10.7 mph17.2 kmh 30.21 in1023.0 mb 0.00 in0.0 mm 0.00 in0.0 mm 0.06 in1.5 mm
04:35 AM 64.7°F18.2°C 62.3°F16.8°C 92% 5.4 mph WSW8.7 kmh WSW 9.8 mph15.8 kmh 30.20 in1022.7 mb 0.00 in0.0 mm 0.00 in0.0 mm 0.06 in1.5 mm
04:30 AM 64.9°F18.3°C 62.7°F17.1°C 93% 5.9 mph W9.5 kmh W 9.8 mph15.8 kmh 30.20 in1022.7 mb 0.00 in0.0 mm 0.00 in0.0 mm 0.06 in1.5 mm
04:25 AM 65.0°F18.3°C 63.0°F17.2°C 93% 6.1 mph W9.8 kmh W 11.4 mph18.3 kmh 30.20 in1022.7 mb 0.00 in0.0 mm 0.00 in0.0 mm 0.06 in1.5 mm
04:20 AM 65.1°F18.4°C 63.0°F17.2°C 93% 5.9 mph W9.5 kmh W 10.7 mph17.2 kmh 30.20 in1022.7 mb 0.00 in0.0 mm 0.00 in0.0 mm 0.06 in1.5 mm
04:15 AM 65.3°F18.5°C 63.2°F17.3°C 93% 7.0 mph W11.3 kmh W 13.6 mph21.9 kmh 30.19 in1022.4 mb 0.00 in0.0 mm 0.00 in0.0 mm 0.06 in1.5 mm
04:10 AM 65.4°F18.6°C 63.3°F17.4°C 93% 5.1 mph WNW8.2 kmh WNW 10.7 mph17.2 kmh 30.19 in1022.4 mb 0.00 in0.0 mm 0.00 in0.0 mm 0.06 in1.5 mm
04:05 AM 65.5°F18.6°C 63.4°F17.4°C 93% 6.1 mph WNW9.8 kmh WNW 10.7 mph17.2 kmh 30.19 in1022.4 mb 0.00 in0.0 mm 0.00 in0.0 mm 0.06 in1.5 mm
04:00 AM 65.6°F18.7°C 63.5°F17.5°C 93% 4.5 mph W7.2 kmh W 6.9 mph11.1 kmh 30.19 in1022.4 mb 0.00 in0.0 mm 0.00 in0.0 mm 0.06 in1.5 mm
03:55 AM 65.7°F18.7°C 63.6°F17.6°C 93% 5.0 mph WNW8.0 kmh WNW 9.2 mph14.8 kmh 30.19 in1022.4 mb 0.00 in0.0 mm 0.00 in0.0 mm 0.06 in1.5 mm
03:50 AM 65.9°F18.8°C 63.8°F17.7°C 93% 4.1 mph NW6.6 kmh NW 8.3 mph13.4 kmh 30.18 in1022.0 mb 0.00 in0.0 mm 0.00 in0.0 mm 0.06 in1.5 mm
03:45 AM 66.0°F18.9°C 63.9°F17.7°C 93% 3.3 mph NNW5.3 kmh NNW 7.6 mph12.2 kmh 30.18 in1022.0 mb 0.00 in0.0 mm 0.00 in0.0 mm 0.06 in1.5 mm
03:40 AM 66.0°F18.9°C 63.9°F17.7°C 93% 4.2 mph W6.8 kmh W 6.9 mph11.1 kmh 30.18 in1022.0 mb 0.00 in0.0 mm 0.00 in0.0 mm 0.06 in1.5 mm
03:35 AM 66.1°F18.9°C 64.0°F17.8°C 93% 4.1 mph NW6.6 kmh NW 8.3 mph13.4 kmh 30.18 in1022.0 mb 0.00 in0.0 mm 0.00 in0.0 mm 0.06 in1.5 mm
03:30 AM 66.2°F19.0°C 64.1°F17.8°C 93% 4.3 mph WNW6.9 kmh WNW 7.6 mph12.2 kmh 30.17 in1021.7 mb 0.00 in0.0 mm 0.00 in0.0 mm 0.06 in1.5 mm
03:25 AM 66.3°F19.1°C 64.3°F17.9°C 93% 5.2 mph NW8.4 kmh NW 12.1 mph19.5 kmh 30.17 in1021.7 mb 0.00 in0.0 mm 0.00 in0.0 mm 0.06 in1.5 mm
03:20 AM 66.4°F19.1°C 64.4°F18.0°C 93% 4.8 mph WNW7.7 kmh WNW 9.8 mph15.8 kmh 30.17 in1021.7 mb 0.00 in0.0 mm 0.00 in0.0 mm 0.06 in1.5 mm
03:15 AM 66.7°F19.3°C 64.8°F18.2°C 94% 5.0 mph WNW8.0 kmh WNW 10.7 mph17.2 kmh 30.17 in1021.7 mb 0.00 in0.0 mm 0.00 in0.0 mm 0.06 in1.5 mm
03:10 AM 66.7°F19.3°C 65.0°F18.3°C 94% 4.7 mph WNW7.6 kmh WNW 10.7 mph17.2 kmh 30.16 in1021.3 mb 0.00 in0.0 mm 0.00 in0.0 mm 0.06 in1.5 mm
03:05 AM 66.7°F19.3°C 65.0°F18.3°C 94% 4.5 mph WNW7.2 kmh WNW 6.9 mph11.1 kmh 30.16 in1021.3 mb 0.00 in0.0 mm 0.00 in0.0 mm 0.06 in1.5 mm
03:00 AM 66.9°F19.4°C 65.1°F18.4°C 94% 5.0 mph NW8.0 kmh NW 12.1 mph19.5 kmh 30.16 in1021.3 mb 0.00 in0.0 mm 0.00 in0.0 mm 0.06 in1.5 mm
02:55 AM 66.9°F19.4°C 65.1°F18.4°C 94% 3.2 mph WNW5.1 kmh WNW 6.9 mph11.1 kmh 30.16 in1021.3 mb 0.00 in0.0 mm 0.00 in0.0 mm 0.06 in1.5 mm
02:50 AM 67.1°F19.5°C 65.5°F18.6°C 95% 5.6 mph NW9.0 kmh NW 9.2 mph14.8 kmh 30.15 in1021.0 mb 0.00 in0.0 mm 0.00 in0.0 mm 0.06 in1.5 mm
02:45 AM 67.2°F19.6°C 65.8°F18.8°C 95% 7.1 mph W11.4 kmh W 12.1 mph19.5 kmh 30.15 in1021.0 mb 0.00 in0.0 mm 0.00 in0.0 mm 0.06 in1.5 mm
02:40 AM 67.5°F19.7°C 66.2°F19.0°C 96% 6.1 mph WNW9.8 kmh WNW 9.8 mph15.8 kmh 30.14 in1020.7 mb 0.00 in0.0 mm 0.00 in0.0 mm 0.06 in1.5 mm
02:35 AM 67.7°F19.8°C 66.5°F19.2°C 96% 6.3 mph WNW10.1 kmh WNW 10.7 mph17.2 kmh 30.14 in1020.7 mb 0.00 in0.0 mm 0.00 in0.0 mm 0.06 in1.5 mm
02:30 AM 67.8°F19.9°C 66.6°F19.2°C 96% 3.2 mph WNW5.1 kmh WNW 6.0 mph9.7 kmh 30.12 in1020.0 mb 0.00 in0.0 mm 0.00 in0.0 mm 0.06 in1.5 mm
02:25 AM 67.9°F19.9°C 66.3°F19.1°C 95% 4.1 mph W6.6 kmh W 8.3 mph13.4 kmh 30.12 in1020.0 mb 0.00 in0.0 mm 0.00 in0.0 mm 0.06 in1.5 mm
02:20 AM 68.0°F20.0°C 66.2°F19.0°C 94% 2.4 mph W3.9 kmh W 6.0 mph9.7 kmh 30.12 in1020.0 mb 0.00 in0.0 mm 0.00 in0.0 mm 0.06 in1.5 mm
02:15 AM 67.9°F19.9°C 66.2°F19.0°C 94% 1.5 mph NW2.4 kmh NW 3.8 mph6.1 kmh 30.11 in1019.6 mb 0.00 in0.0 mm 0.00 in0.0 mm 0.06 in1.5 mm
02:10 AM 67.9°F19.9°C 66.3°F19.1°C 95% 1.9 mph NE3.1 kmh NE 4.5 mph7.2 kmh 30.11 in1019.6 mb 0.00 in0.0 mm 0.00 in0.0 mm 0.06 in1.5 mm
02:05 AM 68.0°F20.0°C 66.2°F19.0°C 94% 3.0 mph NE4.8 kmh NE 6.9 mph11.1 kmh 30.11 in1019.6 mb 0.00 in0.0 mm 0.00 in0.0 mm 0.06 in1.5 mm
02:00 AM 67.9°F19.9°C 66.2°F19.0°C 94% 1.9 mph NNE3.1 kmh NNE 5.4 mph8.7 kmh 30.11 in1019.6 mb 0.01 in0.3 mm 0.00 in0.0 mm 0.06 in1.5 mm
01:55 AM 68.0°F20.0°C 65.9°F18.8°C 93% 2.6 mph NE4.2 kmh NE 5.4 mph8.7 kmh 30.10 in1019.3 mb 0.06 in1.5 mm 0.00 in0.0 mm 0.06 in1.5 mm
01:50 AM 68.1°F20.1°C 66.0°F18.9°C 93% 4.1 mph NE6.6 kmh NE 8.3 mph13.4 kmh 30.10 in1019.3 mb 0.06 in1.5 mm 0.00 in0.0 mm 0.06 in1.5 mm
01:45 AM 68.2°F20.1°C 66.1°F18.9°C 93% 3.9 mph NNE6.3 kmh NNE 7.6 mph12.2 kmh 30.09 in1019.0 mb 0.06 in1.5 mm 0.00 in0.0 mm 0.06 in1.5 mm
01:40 AM 68.5°F20.3°C 66.4°F19.1°C 93% 2.6 mph NE4.2 kmh NE 7.6 mph12.2 kmh 30.10 in1019.3 mb 0.06 in1.5 mm 0.00 in0.0 mm 0.06 in1.5 mm
01:35 AM 68.5°F20.3°C 66.4°F19.1°C 93% 2.3 mph N3.7 kmh N 5.4 mph8.7 kmh 30.09 in1019.0 mb 0.06 in1.5 mm 0.00 in0.0 mm 0.06 in1.5 mm
01:30 AM 68.7°F20.4°C 66.6°F19.2°C 93% 3.3 mph NE5.3 kmh NE 8.3 mph13.4 kmh 30.09 in1019.0 mb 0.06 in1.5 mm 0.00 in0.0 mm 0.06 in1.5 mm
01:25 AM 69.0°F20.6°C 66.8°F19.3°C 93% 4.3 mph NE6.9 kmh NE 9.8 mph15.8 kmh 30.09 in1019.0 mb 0.06 in1.5 mm 0.00 in0.0 mm 0.06 in1.5 mm
01:20 AM 69.2°F20.7°C 67.1°F19.5°C 93% 2.5 mph NE4.0 kmh NE 5.4 mph8.7 kmh 30.08 in1018.6 mb 0.06 in1.5 mm 0.00 in0.0 mm 0.06 in1.5 mm
01:15 AM 69.6°F20.9°C 67.4°F19.7°C 93% 3.4 mph NE5.5 kmh NE 9.8 mph15.8 kmh 30.09 in1019.0 mb 0.06 in1.5 mm 0.00 in0.0 mm 0.06 in1.5 mm
01:10 AM 70.2°F21.2°C 67.9°F19.9°C 93% 4.8 mph W7.7 kmh W 8.3 mph13.4 kmh 30.09 in1019.0 mb 0.06 in1.5 mm 0.00 in0.0 mm 0.06 in1.5 mm
01:05 AM 70.3°F21.3°C 68.2°F20.1°C 93% 6.0 mph W9.7 kmh W 8.3 mph13.4 kmh 30.09 in1019.0 mb 0.06 in1.5 mm 0.07 in1.8 mm 0.06 in1.5 mm
12:55 AM 70.4°F21.3°C 68.6°F20.3°C 94% 3.8 mph WNW6.1 kmh WNW 10.7 mph17.2 kmh 30.07 in1018.3 mb 0.00 in0.0 mm 0.00 in0.0 mm 0.00 in0.0 mm
12:50 AM 70.3°F21.3°C 68.5°F20.3°C 94% 2.7 mph NE4.3 kmh NE 3.8 mph6.1 kmh 30.06 in1017.9 mb 0.00 in0.0 mm 0.00 in0.0 mm 0.00 in0.0 mm
12:45 AM 70.3°F21.3°C 68.5°F20.3°C 94% 2.0 mph NE3.2 kmh NE 5.4 mph8.7 kmh 30.06 in1017.9 mb 0.00 in0.0 mm 0.00 in0.0 mm 0.00 in0.0 mm
12:40 AM 70.3°F21.3°C 68.5°F20.3°C 94% 2.5 mph NE4.0 kmh NE 6.0 mph9.7 kmh 30.06 in1017.9 mb 0.00 in0.0 mm 0.00 in0.0 mm 0.00 in0.0 mm
12:35 AM 70.3°F21.3°C 68.5°F20.3°C 94% 2.5 mph N4.0 kmh N 5.4 mph8.7 kmh 30.07 in1018.3 mb 0.00 in0.0 mm 0.00 in0.0 mm 0.00 in0.0 mm
12:30 AM 70.3°F21.3°C 68.5°F20.3°C 94% 2.7 mph N4.3 kmh N 5.4 mph8.7 kmh 30.06 in1017.9 mb 0.00 in0.0 mm 0.00 in0.0 mm 0.00 in0.0 mm
12:25 AM 70.2°F21.2°C 68.1°F20.1°C 93% 1.8 mph NE2.9 kmh NE 3.8 mph6.1 kmh 30.06 in1017.9 mb 0.00 in0.0 mm 0.00 in0.0 mm 0.00 in0.0 mm
12:20 AM 70.3°F21.3°C 68.2°F20.1°C 93% 2.1 mph N3.4 kmh N 6.0 mph9.7 kmh 30.05 in1017.6 mb 0.00 in0.0 mm 0.00 in0.0 mm 0.00 in0.0 mm
12:15 AM 70.3°F21.3°C 68.2°F20.1°C 93% 3.0 mph NE4.8 kmh NE 6.0 mph9.7 kmh 30.05 in1017.6 mb 0.00 in0.0 mm 0.00 in0.0 mm 0.00 in0.0 mm
12:10 AM 70.4°F21.3°C 68.3°F20.2°C 93% 1.9 mph NNE3.1 kmh NNE 6.0 mph9.7 kmh 30.05 in1017.6 mb 0.00 in0.0 mm 0.00 in0.0 mm 0.00 in0.0 mm
12:05 AM 70.6°F21.4°C 68.5°F20.3°C 93% 3.5 mph NE5.6 kmh NE 6.0 mph9.7 kmh 30.05 in1017.6 mb 0.00 in0.0 mm 0.00 in0.0 mm 0.00 in0.0 mm
12:00 AM 70.7°F21.5°C 68.6°F20.3°C 93% 2.8 mph NE4.5 kmh NE 6.0 mph9.7 kmh 30.05 in1017.6 mb 0.00 in0.0 mm 0.00 in0.0 mm 0.00 in0.0 mm